Time;durP1;ratioP1;P1;durP2;ratioP2;P2;SDS_P1;SDS_P2;PMS_P1;PMS_P2;Temp;Humidity;BMP_temperature;BMP_pressure;BME280_temperature;BME280_humidity;BME280_pressure;Samples;Min_cycle;Max_cycle;Signal;HPM_P1;HPM_P2
2021/05/08 00:00:17;;;;;;;5.15;2.97;;;8.10;99.90;;;;;;4972608;28;20019;-68
2021/05/08 00:02:46;;;;;;;4.43;3.65;;;8.10;99.90;;;;;;4972987;28;20054;-66
2021/05/08 00:05:13;;;;;;;4.28;3.13;;;8.10;99.90;;;;;;4972721;28;20110;-67
2021/05/08 00:07:38;;;;;;;5.50;3.25;;;8.10;99.90;;;;;;4955799;28;20035;-67
2021/05/08 00:10:16;;;;;;;6.10;3.70;;;8.00;99.90;;;;;;4972628;28;20172;-68
2021/05/08 00:12:42;;;;;;;8.13;4.63;;;8.10;99.90;;;;;;4972653;28;20063;-68
2021/05/08 00:15:10;;;;;;;9.27;5.28;;;8.00;99.90;;;;;;4954512;28;20039;-67
2021/05/08 00:17:36;;;;;;;10.27;5.45;;;8.00;99.90;;;;;;4972414;28;20487;-67
2021/05/08 00:20:05;;;;;;;7.70;4.97;;;7.90;99.90;;;;;;4954812;28;20074;-68
2021/05/08 00:22:31;;;;;;;9.23;5.65;;;7.80;99.90;;;;;;4972627;28;20050;-69
2021/05/08 00:24:57;;;;;;;10.75;5.00;;;7.80;99.90;;;;;;4972883;28;20034;-67
2021/05/08 00:27:22;;;;;;;7.13;5.15;;;7.80;99.90;;;;;;4954275;28;20030;-69
2021/05/08 00:29:48;;;;;;;12.13;6.22;;;7.80;99.90;;;;;;4972626;28;20023;-68
2021/05/08 00:32:13;;;;;;;8.27;5.18;;;7.70;99.90;;;;;;4971601;28;20035;-67
2021/05/08 00:34:39;;;;;;;6.55;4.47;;;7.70;99.90;;;;;;4954908;28;20137;-66
2021/05/08 00:37:05;;;;;;;9.88;5.80;;;7.70;99.90;;;;;;4954281;28;20033;-67
2021/05/08 00:39:30;;;;;;;7.43;5.15;;;7.70;99.90;;;;;;4972161;28;20037;-67
2021/05/08 00:41:57;;;;;;;12.57;5.97;;;7.70;99.90;;;;;;4954990;28;20023;-67
2021/05/08 00:44:23;;;;;;;9.65;5.55;;;7.60;99.90;;;;;;4971828;28;20019;-67
2021/05/08 00:46:49;;;;;;;9.15;6.10;;;7.60;99.90;;;;;;4972061;28;20061;-67
2021/05/08 00:49:15;;;;;;;10.57;6.45;;;7.60;99.90;;;;;;4971541;28;20392;-68
2021/05/08 00:51:41;;;;;;;8.23;5.47;;;7.60;99.90;;;;;;4972356;28;20038;-67
2021/05/08 00:54:07;;;;;;;7.55;6.25;;;7.60;99.90;;;;;;4971275;28;20038;-66
2021/05/08 00:56:32;;;;;;;9.63;6.80;;;7.30;99.90;;;;;;4954729;28;20129;-68
2021/05/08 00:58:58;;;;;;;10.30;7.13;;;7.20;99.90;;;;;;4971874;28;20054;-68
2021/05/08 01:01:24;;;;;;;10.27;7.32;;;7.20;99.90;;;;;;4954082;28;20037;-68
2021/05/08 01:03:50;;;;;;;11.02;7.60;;;7.40;99.90;;;;;;4971984;28;20098;-67
2021/05/08 01:06:15;;;;;;;8.40;6.80;;;7.30;99.90;;;;;;4953987;28;20027;-67
2021/05/08 01:08:41;;;;;;;11.05;7.35;;;7.40;99.90;;;;;;4954613;28;20031;-67
2021/05/08 01:11:07;;;;;;;10.00;7.78;;;7.40;99.90;;;;;;4953745;28;20034;-67
2021/05/08 01:13:34;;;;;;;11.18;7.65;;;7.20;99.90;;;;;;4971922;28;20046;-66
2021/05/08 01:15:59;;;;;;;10.95;8.65;;;7.20;99.90;;;;;;4954472;28;20141;-66
2021/05/08 01:18:25;;;;;;;10.73;8.07;;;7.10;99.90;;;;;;4953654;28;20170;-67
2021/05/08 01:20:51;;;;;;;10.32;8.05;;;7.10;99.90;;;;;;4954374;28;20405;-67
2021/05/08 01:23:17;;;;;;;9.50;7.72;;;7.00;99.90;;;;;;4971028;28;20449;-67
2021/05/08 01:25:44;;;;;;;10.10;8.68;;;6.90;99.90;;;;;;4971556;28;20022;-67
2021/05/08 01:28:09;;;;;;;15.80;7.75;;;6.90;99.90;;;;;;4953600;28;20085;-67
2021/05/08 01:30:37;;;;;;;9.13;7.68;;;6.80;99.90;;;;;;4970963;28;20328;-71
2021/05/08 01:33:04;;;;;;;10.10;7.22;;;6.70;99.90;;;;;;4971296;28;20180;-75
2021/05/08 01:35:31;;;;;;;9.48;7.68;;;6.60;99.90;;;;;;4971958;28;20035;-68
2021/05/08 01:37:58;;;;;;;9.35;6.35;;;6.60;99.90;;;;;;4971349;28;20034;-67
2021/05/08 01:40:35;;;;;;;6.72;6.03;;;6.60;99.90;;;;;;4953565;28;20116;-67
2021/05/08 01:43:01;;;;;;;8.43;5.80;;;6.50;99.90;;;;;;4971303;28;20093;-67
2021/05/08 01:45:27;;;;;;;6.63;5.63;;;6.40;99.90;;;;;;4953565;28;20035;-67
2021/05/08 01:47:53;;;;;;;7.10;5.43;;;6.50;99.90;;;;;;4954004;28;20082;-67
2021/05/08 01:50:22;;;;;;;6.80;5.60;;;6.50;99.90;;;;;;4971258;28;20027;-68
2021/05/08 01:52:48;;;;;;;6.63;5.53;;;6.30;99.90;;;;;;4972204;28;20447;-67
2021/05/08 01:55:23;;;;;;;6.38;5.72;;;6.50;99.90;;;;;;4970885;28;20070;-68
2021/05/08 01:57:54;;;;;;;6.95;5.15;;;6.20;99.90;;;;;;4971991;28;20023;-67
2021/05/08 02:00:24;;;;;;;5.82;5.22;;;6.30;99.90;;;;;;4954017;28;20123;-68
2021/05/08 02:02:52;;;;;;;8.13;6.35;;;6.40;99.90;;;;;;4954557;28;20033;-67
2021/05/08 02:05:17;;;;;;;9.93;6.10;;;6.40;99.90;;;;;;4954130;28;20035;-67
2021/05/08 02:07:43;;;;;;;8.88;6.22;;;6.40;99.90;;;;;;4972304;28;20436;-67
2021/05/08 02:10:13;;;;;;;6.55;5.25;;;6.50;99.90;;;;;;4971364;28;20043;-67
2021/05/08 02:12:39;;;;;;;7.35;5.72;;;6.30;99.90;;;;;;4971270;28;20030;-67
2021/05/08 02:15:10;;;;;;;11.05;6.80;;;6.30;99.90;;;;;;4971697;28;20030;-67
2021/05/08 02:17:36;;;;;;;8.45;6.32;;;6.10;99.90;;;;;;4971796;28;20102;-67
2021/05/08 02:20:05;;;;;;;7.88;5.85;;;6.10;99.90;;;;;;4971699;28;20141;-67
2021/05/08 02:22:31;;;;;;;10.13;6.35;;;6.10;99.90;;;;;;4971164;28;20038;-65
2021/05/08 02:24:56;;;;;;;6.65;5.70;;;6.20;99.90;;;;;;4971176;28;20035;-66
2021/05/08 02:27:22;;;;;;;7.88;5.80;;;6.20;99.90;;;;;;4970520;28;20080;-66
2021/05/08 02:29:48;;;;;;;8.88;6.35;;;6.30;99.90;;;;;;4971311;28;20185;-66
2021/05/08 02:32:13;;;;;;;7.30;5.45;;;6.30;99.90;;;;;;4970911;28;20106;-67
2021/05/08 02:34:39;;;;;;;6.90;5.65;;;6.30;99.90;;;;;;4953824;28;20048;-67
2021/05/08 02:37:04;;;;;;;11.32;6.05;;;6.30;99.90;;;;;;4953534;28;20037;-67
2021/05/08 02:39:30;;;;;;;6.65;5.95;;;6.20;99.90;;;;;;4970398;28;20110;-67
2021/05/08 02:41:56;;;;;;;8.40;5.30;;;6.30;99.90;;;;;;4956002;28;20031;-66
2021/05/08 02:44:21;;;;;;;6.82;5.07;;;6.30;99.90;;;;;;4974449;28;20367;-66
2021/05/08 02:46:47;;;;;;;6.38;5.55;;;6.20;99.90;;;;;;4957776;28;20035;-67
2021/05/08 02:49:13;;;;;;;7.18;5.63;;;6.20;99.90;;;;;;4974496;28;20345;-66
2021/05/08 02:51:38;;;;;;;7.75;5.88;;;6.10;99.90;;;;;;4957720;28;20109;-67
2021/05/08 02:54:04;;;;;;;7.88;5.65;;;6.10;99.90;;;;;;4974563;28;20471;-67
2021/05/08 02:56:30;;;;;;;7.80;6.05;;;6.20;99.90;;;;;;4956562;28;20031;-67
2021/05/08 02:58:55;;;;;;;6.50;5.43;;;6.20;99.90;;;;;;4957610;28;20030;-67
2021/05/08 03:01:21;;;;;;;7.97;5.35;;;6.10;99.90;;;;;;4957701;28;20432;-67
2021/05/08 03:03:47;;;;;;;8.48;5.72;;;6.10;99.90;;;;;;4958906;28;20421;-68
2021/05/08 03:06:12;;;;;;;6.30;5.65;;;6.10;99.90;;;;;;4976060;28;20114;-68
2021/05/08 03:08:38;;;;;;;9.23;5.93;;;;;;;;;;4977088;28;20095;-67
2021/05/08 03:11:04;;;;;;;8.32;6.35;;;;;;;;;;4975217;28;20452;-67
2021/05/08 03:13:30;;;;;;;5.95;5.35;;;7.30;99.90;;;;;;4975296;28;20395;-68
2021/05/08 03:15:56;;;;;;;6.97;5.70;;;6.10;99.90;;;;;;4958967;28;20046;-69
2021/05/08 03:18:21;;;;;;;6.75;5.50;;;6.10;99.90;;;;;;4974272;28;20444;-67
2021/05/08 03:20:47;;;;;;;10.00;6.40;;;6.00;99.90;;;;;;4974655;28;20085;-67
2021/05/08 03:23:13;;;;;;;5.97;5.28;;;6.00;99.90;;;;;;4958255;28;20060;-66
2021/05/08 03:25:38;;;;;;;7.07;5.40;;;6.00;99.90;;;;;;4958314;28;20034;-68
2021/05/08 03:28:04;;;;;;;6.22;5.63;;;5.80;99.90;;;;;;4975452;28;20065;-67
2021/05/08 03:30:30;;;;;;;7.22;4.97;;;5.90;99.90;;;;;;4976015;28;20034;-67
2021/05/08 03:32:55;;;;;;;5.95;5.35;;;5.80;99.90;;;;;;4976519;28;20362;-67
2021/05/08 03:35:21;;;;;;;6.85;5.32;;;5.80;99.90;;;;;;4975859;28;20110;-67
2021/05/08 03:37:47;;;;;;;8.75;5.57;;;5.80;99.90;;;;;;4977731;28;20049;-67
2021/05/08 03:40:13;;;;;;;5.63;5.03;;;5.90;99.90;;;;;;4978053;28;20027;-67
2021/05/08 03:42:39;;;;;;;5.68;5.18;;;5.70;99.90;;;;;;4978524;28;20027;-67
2021/05/08 03:45:05;;;;;;;8.18;5.57;;;;;;;;;;4959813;28;20027;-66
2021/05/08 03:47:31;;;;;;;6.50;5.68;;;;;;;;;;4975913;28;20073;-72
2021/05/08 03:49:57;;;;;;;6.07;5.32;;;;;;;;;;4976053;28;20365;-67
2021/05/08 03:52:23;;;;;;;6.70;5.93;;;;;;;;;;4974910;28;20106;-67
2021/05/08 03:54:50;;;;;;;5.97;5.38;;;5.80;99.90;;;;;;4958767;28;20035;-67
2021/05/08 03:57:16;;;;;;;8.30;5.88;;;5.80;99.90;;;;;;4975341;28;20042;-67
2021/05/08 03:59:41;;;;;;;6.55;5.40;;;5.70;99.90;;;;;;4976475;28;20046;-67
2021/05/08 04:02:07;;;;;;;6.95;6.00;;;5.70;99.90;;;;;;4975732;28;20130;-66
2021/05/08 04:04:32;;;;;;;6.45;5.38;;;5.70;99.90;;;;;;4974292;28;20113;-66
2021/05/08 04:06:58;;;;;;;6.07;5.20;;;5.60;99.90;;;;;;4975444;28;20046;-67
2021/05/08 04:09:24;;;;;;;9.48;5.57;;;5.70;99.90;;;;;;4974799;28;20026;-72
2021/05/08 04:11:50;;;;;;;9.15;5.57;;;5.60;99.90;;;;;;4975545;28;20037;-66
2021/05/08 04:14:16;;;;;;;6.10;5.50;;;5.70;99.90;;;;;;4958986;28;20117;-67
2021/05/08 04:16:41;;;;;;;6.00;5.40;;;5.70;99.90;;;;;;4977508;28;20365;-67
2021/05/08 04:19:07;;;;;;;8.95;6.05;;;5.70;99.90;;;;;;4976949;28;20090;-70
2021/05/08 04:21:33;;;;;;;6.13;5.00;;;5.80;99.90;;;;;;4975215;28;20114;-67
2021/05/08 04:23:59;;;;;;;10.40;5.90;;;5.70;99.90;;;;;;4957606;28;20050;-67
2021/05/08 04:26:25;;;;;;;8.15;5.93;;;5.70;99.90;;;;;;4957274;28;20027;-67
2021/05/08 04:28:52;;;;;;;6.25;5.03;;;5.60;99.90;;;;;;4973983;28;20033;-66
2021/05/08 04:31:18;;;;;;;7.40;5.68;;;5.70;99.90;;;;;;4973179;28;20113;-66
2021/05/08 04:33:43;;;;;;;7.13;5.15;;;5.80;99.90;;;;;;4974426;28;20034;-67
2021/05/08 04:36:09;;;;;;;8.10;5.78;;;5.60;99.90;;;;;;4975983;28;20117;-67
2021/05/08 04:38:39;;;;;;;6.53;5.53;;;5.70;99.90;;;;;;4957847;28;20034;-68
2021/05/08 04:41:05;;;;;;;7.25;5.78;;;5.70;99.90;;;;;;4958489;28;20427;-67
2021/05/08 04:43:31;;;;;;;7.82;6.75;;;5.80;99.90;;;;;;4973808;28;20038;-67
2021/05/08 04:45:56;;;;;;;8.40;6.10;;;5.80;99.90;;;;;;4973927;28;20030;-73
2021/05/08 04:48:23;;;;;;;10.02;6.38;;;5.80;99.90;;;;;;4955727;28;20033;-70
2021/05/08 04:50:49;;;;;;;7.90;5.55;;;5.90;99.90;;;;;;4973401;28;20109;-67
2021/05/08 04:53:15;;;;;;;7.95;5.97;;;6.00;99.90;;;;;;4973823;28;20114;-69
2021/05/08 04:55:41;;;;;;;6.30;5.53;;;5.80;99.90;;;;;;4976398;28;20042;-68
2021/05/08 04:58:07;;;;;;;8.60;5.47;;;6.00;99.90;;;;;;4976279;28;20064;-67
2021/05/08 05:00:33;;;;;;;7.20;5.43;;;6.20;99.90;;;;;;4957144;28;20322;-66
2021/05/08 05:02:59;;;;;;;7.15;5.65;;;6.20;99.90;;;;;;4973178;28;20041;-67
2021/05/08 05:05:24;;;;;;;7.22;5.53;;;6.30;99.90;;;;;;4938486;28;20058;-67
2021/05/08 05:07:50;;;;;;;8.48;5.80;;;6.30;99.90;;;;;;4954657;28;20166;-67
2021/05/08 05:10:16;;;;;;;6.82;5.72;;;6.30;99.90;;;;;;4972261;28;20433;-75
2021/05/08 05:12:44;;;;;;;7.57;5.28;;;6.20;99.90;;;;;;4954955;28;20030;-68
2021/05/08 05:15:10;;;;;;;7.20;5.55;;;6.10;99.90;;;;;;4955074;28;20035;-67
2021/05/08 05:17:36;;;;;;;6.10;5.50;;;6.20;99.90;;;;;;4971855;28;20209;-67
2021/05/08 05:20:05;;;;;;;8.25;5.82;;;6.20;99.90;;;;;;4972983;28;20031;-67
2021/05/08 05:22:31;;;;;;;6.95;5.68;;;6.10;99.90;;;;;;4971551;28;20097;-67
2021/05/08 05:24:57;;;;;;;6.88;6.13;;;6.30;99.90;;;;;;4972792;28;20449;-67
2021/05/08 05:27:22;;;;;;;7.90;5.05;;;6.40;99.90;;;;;;4953852;28;20354;-67
2021/05/08 05:29:48;;;;;;;12.13;7.45;;;6.30;99.90;;;;;;4954317;28;20023;-67
2021/05/08 05:32:14;;;;;;;6.28;5.35;;;6.50;99.90;;;;;;4953982;28;20030;-67
2021/05/08 05:34:41;;;;;;;8.73;5.70;;;6.70;99.90;;;;;;4971768;28;20067;-68
2021/05/08 05:37:07;;;;;;;7.10;5.10;;;6.50;99.90;;;;;;4972328;28;20027;-67
2021/05/08 05:39:32;;;;;;;7.40;5.55;;;6.60;99.90;;;;;;4953806;28;20042;-68
2021/05/08 05:41:58;;;;;;;6.50;5.13;;;6.70;99.90;;;;;;4971535;28;20070;-67
2021/05/08 05:44:23;;;;;;;7.28;5.43;;;6.70;99.90;;;;;;4953496;28;20037;-67
2021/05/08 05:46:49;;;;;;;6.82;5.88;;;6.90;99.90;;;;;;4971594;28;20038;-68
2021/05/08 05:49:15;;;;;;;8.32;5.55;;;7.10;99.90;;;;;;4953648;28;20023;-68
2021/05/08 05:51:40;;;;;;;8.82;6.35;;;7.20;99.90;;;;;;4970929;28;20026;-68
2021/05/08 05:54:06;;;;;;;6.78;5.57;;;7.40;99.90;;;;;;4953978;28;20030;-67
2021/05/08 05:56:32;;;;;;;7.35;6.20;;;7.10;99.90;;;;;;4971114;28;20027;-68
2021/05/08 05:58:57;;;;;;;7.95;5.75;;;7.10;99.90;;;;;;4971153;28;20348;-67
2021/05/08 06:01:23;;;;;;;10.20;6.03;;;7.20;99.90;;;;;;4971342;28;20030;-67
2021/05/08 06:03:49;;;;;;;9.70;5.88;;;7.50;99.90;;;;;;4953531;28;20487;-69
2021/05/08 06:06:14;;;;;;;7.10;5.72;;;7.60;99.90;;;;;;4971230;28;20033;-67
2021/05/08 06:08:40;;;;;;;14.48;5.85;;;7.60;99.90;;;;;;4952965;28;20026;-68
2021/05/08 06:11:06;;;;;;;6.28;5.38;;;7.40;99.90;;;;;;4953876;28;20062;-68
2021/05/08 06:13:32;;;;;;;6.22;5.63;;;7.60;99.90;;;;;;4953038;28;20042;-69
2021/05/08 06:16:03;;;;;;;10.75;5.68;;;7.70;99.90;;;;;;4972080;28;20030;-68
2021/05/08 06:18:29;;;;;;;11.43;6.32;;;7.70;99.90;;;;;;4957190;28;20512;-68
2021/05/08 06:20:56;;;;;;;8.27;6.18;;;7.90;99.90;;;;;;4957599;28;20151;-68
2021/05/08 06:23:21;;;;;;;5.78;5.18;;;8.00;99.90;;;;;;4956727;28;20160;-69
2021/05/08 06:25:47;;;;;;;31.88;6.63;;;8.00;99.90;;;;;;4957416;28;20205;-68
2021/05/08 06:28:13;;;;;;;7.50;5.47;;;8.20;99.90;;;;;;4963297;28;20023;-68
2021/05/08 06:30:39;;;;;;;6.30;5.60;;;8.10;99.90;;;;;;4977776;28;20027;-68
2021/05/08 06:33:05;;;;;;;6.40;5.82;;;8.40;99.90;;;;;;4958187;28;20034;-68
2021/05/08 06:35:31;;;;;;;7.82;5.65;;;8.60;99.90;;;;;;4975666;28;20425;-67
2021/05/08 06:37:58;;;;;;;7.75;5.68;;;8.90;99.90;;;;;;4959753;28;20476;-68
2021/05/08 06:40:24;;;;;;;7.13;5.97;;;9.10;99.90;;;;;;4958509;28;20085;-67
2021/05/08 06:42:49;;;;;;;8.95;5.88;;;9.10;99.90;;;;;;4975673;28;20412;-67
2021/05/08 06:45:15;;;;;;;9.75;5.78;;;9.20;99.90;;;;;;4974414;28;20125;-68
2021/05/08 06:47:41;;;;;;;7.03;5.72;;;9.40;99.90;;;;;;4956205;28;20242;-67
2021/05/08 06:50:08;;;;;;;10.40;6.43;;;9.70;99.90;;;;;;4974281;28;20027;-67
2021/05/08 06:52:34;;;;;;;8.68;6.18;;;;;;;;;;4956039;28;20092;-67
2021/05/08 06:54:59;;;;;;;8.93;6.05;;;9.90;99.90;;;;;;4973850;28;20027;-66
2021/05/08 06:57:25;;;;;;;10.27;5.50;;;10.10;99.90;;;;;;4956054;28;20380;-68
2021/05/08 06:59:50;;;;;;;11.20;6.45;;;10.20;99.90;;;;;;4956544;28;20042;-67
2021/05/08 07:02:16;;;;;;;14.07;6.65;;;10.20;99.90;;;;;;4973877;28;20555;-67
2021/05/08 07:04:42;;;;;;;10.48;6.05;;;10.40;99.90;;;;;;4973657;28;20205;-68
2021/05/08 07:07:07;;;;;;;10.43;5.28;;;10.40;99.90;;;;;;4956400;28;20053;-67
2021/05/08 07:09:33;;;;;;;5.50;4.95;;;10.60;99.80;;;;;;4973435;28;20042;-66
2021/05/08 07:11:59;;;;;;;6.22;5.15;;;10.30;99.10;;;;;;4956479;28;20475;-67
2021/05/08 07:14:24;;;;;;;11.45;5.72;;;10.30;98.90;;;;;;4955538;28;20038;-69
2021/05/08 07:16:50;;;;;;;5.68;5.00;;;10.20;98.00;;;;;;4956407;28;20038;-66
2021/05/08 07:19:16;;;;;;;9.18;5.40;;;10.30;98.20;;;;;;4973683;28;20023;-67
2021/05/08 07:21:41;;;;;;;11.77;6.00;;;10.70;97.80;;;;;;4955451;28;20031;-67
2021/05/08 07:24:07;;;;;;;7.00;4.97;;;11.10;98.70;;;;;;4973346;28;20054;-65
2021/05/08 07:26:33;;;;;;;6.15;4.95;;;;;;;;;;4966274;28;20197;-66
2021/05/08 07:29:00;;;;;;;6.85;4.97;;;11.70;99.90;;;;;;4954607;28;20464;-68
2021/05/08 07:31:26;;;;;;;7.03;4.95;;;11.80;92.50;;;;;;4956883;28;20034;-67
2021/05/08 07:33:52;;;;;;;4.88;4.38;;;11.90;90.90;;;;;;4965522;28;20090;-65
2021/05/08 07:36:19;;;;;;;5.53;4.22;;;11.90;91.30;;;;;;4974876;28;20387;-62
2021/05/08 07:38:45;;;;;;;5.30;3.85;;;12.70;94.80;;;;;;4974066;28;20053;-64
2021/05/08 07:41:11;;;;;;;6.10;4.40;;;13.00;99.90;;;;;;4992894;28;20363;-66
2021/05/08 07:43:37;;;;;;;7.20;4.85;;;12.90;94.50;;;;;;4991982;28;20022;-65
2021/05/08 07:46:03;;;;;;;9.23;4.35;;;12.60;94.00;;;;;;4974333;28;20026;-65
2021/05/08 07:48:29;;;;;;;4.72;4.18;;;12.80;93.70;;;;;;4974985;28;20038;-73
2021/05/08 07:50:55;;;;;;;8.40;4.68;;;12.50;93.60;;;;;;4954700;28;20384;-67
2021/05/08 07:53:20;;;;;;;5.45;4.50;;;12.60;93.50;;;;;;4954789;28;20464;-65
2021/05/08 07:55:47;;;;;;;6.43;4.57;;;12.70;93.20;;;;;;4970475;28;20075;-65
2021/05/08 07:58:13;;;;;;;4.22;3.88;;;12.90;93.00;;;;;;4973084;28;20046;-65
2021/05/08 08:00:38;;;;;;;6.88;4.32;;;13.10;92.10;;;;;;4953288;28;20023;-66
2021/05/08 08:03:05;;;;;;;7.90;3.50;;;13.10;91.90;;;;;;4955058;28;20130;-67
2021/05/08 08:05:31;;;;;;;4.57;3.83;;;13.60;91.40;;;;;;4971232;28;20113;-65
2021/05/08 08:07:57;;;;;;;6.38;4.50;;;13.90;92.50;;;;;;4971649;28;20033;-64
2021/05/08 08:10:23;;;;;;;5.40;4.38;;;14.10;94.20;;;;;;4952554;28;20035;-64
2021/05/08 08:12:49;;;;;;;5.20;4.28;;;13.70;93.90;;;;;;4953495;28;20125;-65
2021/05/08 08:15:16;;;;;;;5.90;4.53;;;13.60;94.30;;;;;;4969558;28;20031;-66
2021/05/08 08:17:47;;;;;;;4.25;3.85;;;13.10;94.30;;;;;;4969122;28;20027;-63
2021/05/08 08:20:14;;;;;;;5.82;4.45;;;13.00;94.00;;;;;;4953187;28;20051;-65
2021/05/08 08:22:42;;;;;;;6.00;4.07;;;12.70;94.50;;;;;;4952769;28;20039;-65
2021/05/08 08:25:12;;;;;;;5.03;3.83;;;12.60;95.10;;;;;;4953825;28;20047;-65
2021/05/08 08:27:38;;;;;;;6.90;4.30;;;13.20;95.20;;;;;;4952772;28;20516;-64
2021/05/08 08:30:06;;;;;;;5.85;4.15;;;13.50;94.20;;;;;;4954154;28;20026;-63
2021/05/08 08:32:33;;;;;;;5.78;4.30;;;13.50;93.60;;;;;;4970898;28;20089;-63
2021/05/08 08:34:59;;;;;;;6.95;3.70;;;13.40;93.70;;;;;;4953563;28;20120;-64
2021/05/08 08:37:24;;;;;;;5.63;4.00;;;13.10;94.60;;;;;;4970267;28;20026;-66
2021/05/08 08:39:50;;;;;;;5.95;4.35;;;13.10;94.40;;;;;;4953108;28;20055;-63
2021/05/08 08:42:17;;;;;;;11.32;4.35;;;13.40;94.60;;;;;;4952556;28;20062;-64
2021/05/08 08:44:43;;;;;;;5.72;3.80;;;13.60;94.70;;;;;;4952573;28;20027;-63
2021/05/08 08:47:30;;;;;;;5.53;3.97;;;14.00;93.60;;;;;;4954151;28;20026;-64
2021/05/08 08:50:07;;;;;;;5.05;3.20;;;13.70;93.70;;;;;;4971575;28;20018;-64
2021/05/08 08:52:34;;;;;;;6.25;3.60;;;13.90;93.10;;;;;;4958122;28;20027;-66
2021/05/08 08:55:00;;;;;;;4.22;3.75;;;13.80;93.20;;;;;;4979579;28;20046;-68
2021/05/08 08:57:38;;;;;;;5.15;4.15;;;13.60;93.70;;;;;;4951793;28;20073;-67
2021/05/08 09:00:11;;;;;;;6.38;4.38;;;13.40;93.60;;;;;;4953734;28;20042;-62
2021/05/08 09:02:37;;;;;;;4.18;3.58;;;14.10;94.40;;;;;;4952597;28;20491;-66
2021/05/08 09:05:03;;;;;;;5.30;3.78;;;14.30;77.10;;;;;;4970293;28;20126;-64
2021/05/08 09:07:30;;;;;;;5.90;3.50;;;14.30;76.20;;;;;;4970643;28;20038;-74
2021/05/08 09:09:56;;;;;;;5.38;3.30;;;13.90;75.70;;;;;;4953119;28;20113;-63
2021/05/08 09:12:30;;;;;;;6.45;3.47;;;14.60;75.30;;;;;;4970578;28;20106;-63
2021/05/08 09:14:56;;;;;;;5.70;3.67;;;15.10;74.90;;;;;;4970748;28;20547;-64
2021/05/08 09:17:27;;;;;;;7.45;3.88;;;15.10;72.10;;;;;;4970814;28;20026;-71
2021/05/08 09:20:01;;;;;;;5.05;3.60;;;14.80;70.50;;;;;;4987670;28;20032;-63
2021/05/08 09:22:38;;;;;;;6.53;3.67;;;14.80;71.50;;;;;;4972630;28;20031;-63
2021/05/08 09:25:05;;;;;;;6.05;3.00;;;14.90;67.10;;;;;;4972874;28;20353;-64
2021/05/08 09:27:50;;;;;;;5.18;3.17;;;14.40;66.90;;;;;;4989880;28;20136;-65
2021/05/08 09:30:43;;;;;;;7.45;3.05;;;14.50;65.80;;;;;;4972968;28;20038;-65
2021/05/08 09:33:08;;;;;;;6.70;2.72;;;14.70;64.20;;;;;;4990147;28;20137;-65
2021/05/08 09:35:35;;;;;;;4.43;2.83;;;14.60;65.20;;;;;;4989386;28;20113;-64
2021/05/08 09:38:10;;;;;;;3.30;2.42;;;14.80;64.10;;;;;;4973136;28;20062;-65
2021/05/08 09:40:37;;;;;;;4.50;3.00;;;15.10;63.50;;;;;;4990380;28;20073;-65
2021/05/08 09:43:09;;;;;;;5.63;2.80;;;15.20;63.20;;;;;;4972958;28;20042;-64
2021/05/08 09:45:39;;;;;;;4.53;3.22;;;15.30;62.50;;;;;;4989497;28;20443;-65
2021/05/08 09:48:37;;;;;;;4.80;2.55;;;15.30;62.50;;;;;;4990045;28;20159;-64
2021/05/08 09:51:28;;;;;;;5.10;2.65;;;15.00;61.60;;;;;;4909979;28;20062;-64
2021/05/08 09:54:02;;;;;;;5.95;2.75;;;15.40;61.20;;;;;;4950288;28;20428;-68
2021/05/08 09:56:47;;;;;;;7.68;2.60;;;15.10;61.60;;;;;;4951227;28;20086;-65
2021/05/08 09:59:23;;;;;;;7.53;2.95;;;15.80;60.10;;;;;;4951672;28;20133;-65
2021/05/08 10:02:10;;;;;;;4.80;2.53;;;16.60;62.70;;;;;;4950783;28;20054;-63
2021/05/08 10:04:45;;;;;;;4.28;3.17;;;16.10;83.60;;;;;;4950496;28;20094;-64
2021/05/08 10:07:14;;;;;;;3.72;2.05;;;16.20;57.00;;;;;;4969336;28;20062;-64
2021/05/08 10:09:47;;;;;;;4.15;1.80;;;16.10;56.70;;;;;;4950383;28;20110;-65
2021/05/08 10:12:18;;;;;;;3.42;2.05;;;16.00;56.70;;;;;;4951834;28;20035;-67
2021/05/08 10:14:51;;;;;;;4.60;2.22;;;15.60;56.90;;;;;;4950761;28;20528;-64
2021/05/08 10:17:28;;;;;;;4.65;2.40;;;15.30;58.50;;;;;;4937317;28;20055;-64
2021/05/08 10:20:08;;;;;;;2.80;1.85;;;15.70;58.00;;;;;;4938888;28;20034;-68
2021/05/08 10:22:40;;;;;;;3.00;1.75;;;15.60;56.60;;;;;;4950579;28;20034;-67
2021/05/08 10:25:06;;;;;;;;;;;15.90;56.80;;;;;;4969106;28;20099;-64
2021/05/08 10:27:32;;;;;;;3.20;1.80;;;16.20;56.60;;;;;;4949986;28;19941;-75
2021/05/08 10:29:58;;;;;;;5.88;2.67;;;16.40;55.30;;;;;;4979384;28;20136;-63
2021/05/08 10:32:24;;;;;;;3.75;2.10;;;16.70;55.60;;;;;;4961879;28;20417;-65
2021/05/08 10:34:59;;;;;;;7.07;2.45;;;16.60;55.40;;;;;;4961706;28;20874;-64
2021/05/08 10:37:26;;;;;;;5.43;1.92;;;17.00;54.80;;;;;;4955900;28;20023;-63
2021/05/08 10:40:09;;;;;;;3.50;1.67;;;16.80;54.40;;;;;;4975027;28;20437;-64
2021/05/08 10:42:46;;;;;;;9.73;1.92;;;17.10;54.10;;;;;;4973407;28;20404;-65
2021/05/08 10:45:12;;;;;;;2.95;1.70;;;17.40;52.30;;;;;;4970425;28;20380;-64
2021/05/08 10:47:53;;;;;;;4.43;1.88;;;17.70;55.80;;;;;;4961678;28;20381;-65
2021/05/08 10:50:21;;;;;;;3.65;1.27;;;17.90;60.70;;;;;;4964513;28;20037;-64
2021/05/08 10:53:17;;;;;;;4.32;1.60;;;17.90;68.50;;;;;;4969368;28;20027;-65
2021/05/08 10:55:59;;;;;;;3.88;1.70;;;17.40;70.50;;;;;;4954818;28;20085;-64
2021/05/08 10:58:27;;;;;;;;;;;17.50;70.50;;;;;;4970162;28;20114;-65
2021/05/08 11:00:59;;;;;;;3.50;1.83;;;17.60;71.60;;;;;;4969610;28;19918;-63
2021/05/08 11:03:44;;;;;;;4.57;1.60;;;17.90;70.00;;;;;;4971376;28;20341;-64
2021/05/08 11:06:10;;;;;;;4.53;1.77;;;17.90;66.10;;;;;;4972931;28;20130;-65
2021/05/08 11:08:35;;;;;;;3.42;1.40;;;17.60;62.50;;;;;;4970765;28;20034;-65
2021/05/08 11:11:27;;;;;;;2.72;1.33;;;17.70;63.10;;;;;;4971514;28;20380;-64
2021/05/08 11:14:01;;;;;;;2.10;1.20;;;18.30;49.40;;;;;;4972398;28;20031;-64
2021/05/08 11:16:27;;;;;;;4.32;1.33;;;18.20;59.30;;;;;;4972923;28;20368;-63
2021/05/08 11:18:58;;;;;;;4.30;1.27;;;18.50;48.20;;;;;;4970933;28;20421;-66
2021/05/08 11:21:23;;;;;;;2.35;1.30;;;18.10;48.70;;;;;;4972986;28;20104;-63
2021/05/08 11:23:57;;;;;;;2.92;1.02;;;18.00;49.00;;;;;;4971879;28;20468;-64
2021/05/08 11:29:15;;;;;;;2.30;1.02;;;18.40;46.80;;;;;;4972351;28;20035;-64
2021/05/08 11:31:45;;;;;;;1.95;0.85;;;18.10;47.10;;;;;;4970919;28;20361;-64
2021/05/08 11:34:11;;;;;;;2.30;1.20;;;18.30;47.90;;;;;;4972748;28;20089;-64
2021/05/08 11:36:46;;;;;;;3.10;0.85;;;18.10;45.70;;;;;;4972037;28;20415;-63
2021/05/08 11:39:15;;;;;;;3.47;1.10;;;17.50;46.30;;;;;;4973270;28;20103;-65
2021/05/08 11:41:42;;;;;;;1.27;1.15;;;17.30;46.60;;;;;;4972425;28;20110;-65
2021/05/08 11:44:08;;;;;;;3.65;1.20;;;17.70;48.00;;;;;;4955339;28;20042;-64
2021/05/08 11:46:35;;;;;;;2.67;1.30;;;17.70;47.30;;;;;;4972752;28;20464;-79
2021/05/08 11:49:01;;;;;;;2.65;1.17;;;17.60;47.70;;;;;;4972934;28;20038;-65
2021/05/08 11:51:27;;;;;;;3.90;1.35;;;17.80;47.90;;;;;;4970936;28;20464;-64
2021/05/08 11:54:09;;;;;;;3.28;1.10;;;17.50;46.90;;;;;;4971870;28;20030;-64
2021/05/08 11:56:35;;;;;;;3.97;1.08;;;17.40;47.30;;;;;;4970389;28;20026;-77
2021/05/08 11:59:06;;;;;;;3.05;1.48;;;17.60;46.50;;;;;;4972188;28;20162;-64
2021/05/08 12:01:32;;;;;;;1.92;0.80;;;17.40;47.00;;;;;;4970899;28;20095;-64
2021/05/08 12:04:01;;;;;;;1.55;0.98;;;17.70;47.30;;;;;;4971525;28;20184;-64
2021/05/08 12:06:28;;;;;;;3.85;0.80;;;17.80;46.40;;;;;;4972122;28;20045;-64
2021/05/08 12:08:55;;;;;;;1.83;1.30;;;17.70;46.90;;;;;;4970426;28;20037;-63
2021/05/08 12:11:21;;;;;;;3.47;1.52;;;17.90;45.70;;;;;;4970827;28;20030;-64
2021/05/08 12:13:47;;;;;;;1.95;0.90;;;17.80;44.90;;;;;;4970724;28;20473;-64
2021/05/08 12:16:13;;;;;;;2.35;1.00;;;17.60;45.50;;;;;;4970617;28;20130;-64
2021/05/08 12:18:40;;;;;;;4.05;1.10;;;17.80;46.40;;;;;;4971900;28;20077;-64
2021/05/08 12:21:10;;;;;;;5.72;1.60;;;17.40;46.90;;;;;;4971941;28;20023;-64
2021/05/08 12:23:37;;;;;;;2.03;1.25;;;17.30;47.30;;;;;;4971815;28;20106;-75
2021/05/08 12:26:08;;;;;;;1.77;0.75;;;17.40;47.40;;;;;;4972174;28;20557;-63
2021/05/08 12:28:39;;;;;;;2.20;1.20;;;17.30;46.60;;;;;;4972071;28;20031;-63
2021/05/08 12:31:29;;;;;;;2.38;1.13;;;17.50;46.70;;;;;;4970267;28;20109;-65
2021/05/08 12:34:04;;;;;;;3.03;1.17;;;17.40;45.70;;;;;;4969654;28;20101;-65
2021/05/08 12:36:32;;;;;;;1.45;0.77;;;17.40;47.20;;;;;;4970364;28;20471;-63
2021/05/08 12:39:23;;;;;;;1.10;0.80;;;17.80;46.10;;;;;;4971249;28;20026;-64
2021/05/08 12:42:06;;;;;;;1.45;0.80;;;18.20;46.70;;;;;;4970983;28;20125;-65
2021/05/08 12:44:38;;;;;;;3.42;0.80;;;17.90;44.80;;;;;;4971471;28;20047;-64
2021/05/08 12:47:16;;;;;;;2.88;0.95;;;17.60;44.40;;;;;;4971840;28;20409;-64
2021/05/08 12:50:06;;;;;;;2.67;0.90;;;17.60;43.80;;;;;;4971029;28;20098;-64
2021/05/08 12:52:43;;;;;;;4.10;0.82;;;17.40;44.80;;;;;;4970073;28;20079;-65
2021/05/08 12:55:35;;;;;;;1.67;1.00;;;17.60;44.60;;;;;;4971677;28;20027;-63
2021/05/08 12:58:13;;;;;;;;;;;17.80;45.00;;;;;;4970043;28;20112;-62
2021/05/08 13:00:51;;;;;;;1.30;0.80;;;18.00;44.90;;;;;;4970840;28;20362;-67
2021/05/08 13:03:45;;;;;;;1.20;0.77;;;17.90;44.50;;;;;;4969751;28;20046;-66